Time;durP1;ratioP1;P1;durP2;ratioP2;P2;SDS_P1;SDS_P2;PMS_P1;PMS_P2;Temp;Humidity;BMP_temperature;BMP_pressure;BME280_temperature;BME280_humidity;BME280_pressure;Samples;Min_cycle;Max_cycle;Signal;HPM_P1;HPM_P2
2023/02/26 00:00:07;;;;;;;4.30;2.03;;;0.00;99.90;;;;;;5054736;28;20568;-90
2023/02/26 00:02:35;;;;;;;4.47;2.13;;;0.00;99.90;;;;;;5069483;28;20198;-89
2023/02/26 00:05:02;;;;;;;5.50;2.40;;;0.00;99.90;;;;;;5055050;28;20303;-89
2023/02/26 00:07:29;;;;;;;6.17;1.83;;;-0.10;99.90;;;;;;5053768;28;20207;-89
2023/02/26 00:09:56;;;;;;;3.30;1.97;;;-0.10;99.90;;;;;;5054102;28;20234;-90
2023/02/26 00:12:24;;;;;;;3.90;2.00;;;-0.10;99.90;;;;;;5054399;28;20195;-88
2023/02/26 00:14:52;;;;;;;3.00;2.00;;;0.20;99.90;;;;;;5065655;28;20226;-89
2023/02/26 00:17:39;;;;;;;7.00;2.03;;;0.10;99.90;;;;;;5066344;28;20202;-89
2023/02/26 00:20:07;;;;;;;6.87;1.87;;;0.00;99.90;;;;;;5060870;28;20199;-89
2023/02/26 00:22:35;;;;;;;4.37;1.97;;;0.00;99.90;;;;;;5064722;28;20206;-89
2023/02/26 00:25:02;;;;;;;5.13;2.10;;;-0.10;99.90;;;;;;5069007;28;20237;-89
2023/02/26 00:27:30;;;;;;;3.37;2.17;;;-0.10;99.90;;;;;;5054159;28;20205;-90
2023/02/26 00:29:57;;;;;;;3.83;2.07;;;0.00;99.90;;;;;;5058057;28;20220;-90
2023/02/26 00:32:24;;;;;;;4.63;2.17;;;0.00;99.90;;;;;;5058156;28;20210;-89
2023/02/26 00:34:52;;;;;;;5.60;2.23;;;0.00;99.90;;;;;;5059284;28;20222;-90
2023/02/26 00:37:29;;;;;;;3.80;1.83;;;0.10;99.90;;;;;;5056375;28;20209;-90
2023/02/26 00:40:10;;;;;;;3.40;2.10;;;0.10;99.90;;;;;;5062314;28;20202;-89
2023/02/26 00:42:40;;;;;;;5.23;2.17;;;0.10;99.90;;;;;;5054380;28;20261;-89
2023/02/26 00:45:08;;;;;;;3.70;2.20;;;0.10;99.90;;;;;;5056213;28;20223;-90
2023/02/26 00:47:42;;;;;;;3.73;2.23;;;0.10;99.90;;;;;;5061133;28;20205;-89
2023/02/26 00:50:16;;;;;;;4.40;2.10;;;0.10;99.90;;;;;;5071765;28;20229;-89
2023/02/26 00:52:52;;;;;;;5.03;1.80;;;0.20;99.90;;;;;;5063945;28;20199;-89
2023/02/26 00:55:19;;;;;;;5.47;2.40;;;0.20;99.90;;;;;;5064415;28;20224;-88
2023/02/26 00:57:47;;;;;;;5.13;2.03;;;0.10;99.90;;;;;;5064032;28;20202;-89
2023/02/26 01:00:15;;;;;;;6.10;2.00;;;0.10;99.90;;;;;;5067020;28;20190;-89
2023/02/26 01:02:43;;;;;;;6.20;1.90;;;0.20;99.90;;;;;;5064885;28;20206;-89
2023/02/26 01:05:11;;;;;;;5.13;2.47;;;0.20;99.90;;;;;;5064637;28;20230;-88
2023/02/26 01:07:43;;;;;;;4.23;2.13;;;0.30;99.90;;;;;;5069257;28;20198;-88
2023/02/26 01:10:12;;;;;;;4.00;1.97;;;0.20;99.90;;;;;;5060480;28;20711;-89
2023/02/26 01:12:39;;;;;;;4.17;2.07;;;0.20;99.90;;;;;;5069422;28;20569;-89
2023/02/26 01:15:09;;;;;;;4.00;1.80;;;0.30;99.90;;;;;;5064442;28;20233;-88
2023/02/26 01:17:41;;;;;;;3.90;1.90;;;0.20;99.90;;;;;;5054157;28;20206;-89
2023/02/26 01:20:14;;;;;;;3.77;2.10;;;0.30;99.90;;;;;;5051958;28;20684;-89
2023/02/26 01:22:47;;;;;;;5.30;2.07;;;0.20;99.90;;;;;;5053514;28;20679;-88
2023/02/26 01:25:18;;;;;;;4.90;2.10;;;0.30;99.90;;;;;;5052540;28;20219;-89
2023/02/26 01:27:45;;;;;;;4.60;2.20;;;0.20;99.90;;;;;;5052456;28;20214;-89
2023/02/26 01:30:15;;;;;;;7.03;1.90;;;0.20;99.90;;;;;;5051003;28;20230;-89
2023/02/26 01:32:46;;;;;;;7.43;2.30;;;0.20;99.90;;;;;;5061232;28;20203;-88
2023/02/26 01:35:23;;;;;;;4.23;2.23;;;0.20;99.90;;;;;;5058906;28;20223;-89
2023/02/26 01:37:57;;;;;;;5.20;2.37;;;0.20;99.90;;;;;;5061291;28;20208;-88
2023/02/26 01:40:46;;;;;;;8.17;2.37;;;0.20;99.90;;;;;;5063721;28;20194;-89
2023/02/26 01:43:19;;;;;;;4.47;1.80;;;0.30;99.90;;;;;;5071915;28;20191;-88
2023/02/26 01:45:56;;;;;;;5.23;2.40;;;0.20;99.90;;;;;;5068806;28;20608;-89
2023/02/26 01:48:35;;;;;;;3.93;1.67;;;0.40;99.90;;;;;;5057054;28;20210;-89
2023/02/26 01:51:02;;;;;;;4.87;1.77;;;0.20;99.90;;;;;;5067154;28;20198;-89
2023/02/26 01:53:29;;;;;;;5.17;2.33;;;0.20;99.90;;;;;;5069474;28;20210;-89
2023/02/26 01:56:00;;;;;;;6.30;2.00;;;0.20;99.90;;;;;;5067721;28;20222;-88
2023/02/26 01:58:30;;;;;;;6.23;1.93;;;0.20;99.90;;;;;;5064752;28;20283;-89
2023/02/26 02:00:58;;;;;;;6.73;1.80;;;0.10;99.90;;;;;;5066889;28;20569;-88
2023/02/26 02:03:27;;;;;;;6.10;2.20;;;0.10;99.90;;;;;;5069113;28;20584;-88
2023/02/26 02:05:58;;;;;;;3.83;1.50;;;0.20;99.90;;;;;;5067236;28;20219;-88
2023/02/26 02:08:25;;;;;;;4.17;1.60;;;0.10;99.90;;;;;;5070547;28;20198;-89
2023/02/26 02:10:53;;;;;;;4.60;1.87;;;0.10;99.90;;;;;;5058398;28;20657;-88
2023/02/26 02:13:35;;;;;;;7.23;1.97;;;0.10;99.90;;;;;;5068887;28;20198;-89
2023/02/26 02:16:15;;;;;;;6.53;2.00;;;0.10;99.90;;;;;;5051552;28;20745;-89
2023/02/26 02:18:49;;;;;;;6.50;1.90;;;0.10;99.90;;;;;;5052732;28;20205;-89
2023/02/26 02:21:46;;;;;;;5.47;2.40;;;0.10;99.90;;;;;;5052470;28;20222;-89
2023/02/26 02:24:20;;;;;;;6.77;2.33;;;0.10;99.90;;;;;;5045812;28;20207;-89
2023/02/26 02:26:59;;;;;;;5.47;1.87;;;0.10;99.90;;;;;;5052528;28;20218;-89
2023/02/26 02:29:46;;;;;;;6.00;2.13;;;0.10;99.90;;;;;;5052675;28;20222;-89
2023/02/26 02:32:21;;;;;;;5.07;2.07;;;0.10;99.90;;;;;;5058567;28;20194;-88
2023/02/26 02:34:52;;;;;;;5.83;1.70;;;0.00;99.90;;;;;;5056150;28;20221;-89
2023/02/26 02:37:25;;;;;;;4.17;1.77;;;0.10;99.90;;;;;;5055630;28;20667;-88
2023/02/26 02:39:55;;;;;;;5.23;1.67;;;0.00;99.90;;;;;;5056326;28;20841;-88
2023/02/26 02:42:28;;;;;;;5.50;2.37;;;0.00;99.90;;;;;;5061246;28;20597;-88
2023/02/26 02:44:58;;;;;;;4.60;1.80;;;0.00;99.90;;;;;;5075311;28;20690;-89
2023/02/26 02:47:28;;;;;;;7.53;2.00;;;0.10;99.90;;;;;;5067589;28;20195;-88
2023/02/26 02:50:02;;;;;;;10.97;3.33;;;0.00;99.90;;;;;;5065446;28;20606;-89
2023/02/26 02:52:37;;;;;;;9.10;2.17;;;0.00;99.90;;;;;;5061834;28;20197;-88
2023/02/26 02:55:09;;;;;;;5.90;2.17;;;0.00;99.90;;;;;;5071208;28;20233;-89
2023/02/26 02:57:39;;;;;;;5.20;2.17;;;0.00;99.90;;;;;;5075314;28;20259;-88
2023/02/26 03:00:09;;;;;;;7.87;2.10;;;0.00;99.90;;;;;;5066489;28;20208;-88
2023/02/26 03:02:43;;;;;;;4.27;1.70;;;0.00;99.90;;;;;;5068254;28;20195;-89
2023/02/26 03:05:10;;;;;;;3.33;1.50;;;0.00;99.90;;;;;;5073191;28;20230;-88
2023/02/26 03:07:44;;;;;;;3.50;1.90;;;0.00;99.90;;;;;;5060715;28;20199;-89
2023/02/26 03:10:13;;;;;;;2.43;1.53;;;0.00;99.90;;;;;;5055824;28;20219;-89
2023/02/26 03:12:40;;;;;;;10.07;2.60;;;0.10;99.90;;;;;;5074391;28;20206;-89
2023/02/26 03:15:08;;;;;;;6.57;2.10;;;0.10;99.90;;;;;;5068940;28;20225;-88
2023/02/26 03:17:46;;;;;;;3.90;1.90;;;0.10;99.90;;;;;;5070014;28;20191;-89
2023/02/26 03:20:20;;;;;;;8.33;2.40;;;0.00;99.90;;;;;;5066654;28;20206;-89
2023/02/26 03:23:00;;;;;;;4.33;2.27;;;-0.10;99.90;;;;;;5075152;28;20201;-89
2023/02/26 03:25:30;;;;;;;5.17;2.20;;;0.00;99.90;;;;;;5070737;28;20272;-89
2023/02/26 03:28:04;;;;;;;6.43;1.70;;;0.00;99.90;;;;;;5074718;28;20209;-89
2023/02/26 03:30:38;;;;;;;6.13;2.50;;;0.00;99.90;;;;;;5062414;28;20233;-89
2023/02/26 03:33:13;;;;;;;3.63;1.93;;;0.00;99.90;;;;;;5075386;28;20191;-89
2023/02/26 03:35:48;;;;;;;7.20;1.93;;;0.00;99.90;;;;;;5055218;28;20219;-89
2023/02/26 03:38:24;;;;;;;4.60;1.70;;;0.10;99.90;;;;;;5054625;28;20205;-89
2023/02/26 03:40:57;;;;;;;4.43;1.97;;;0.00;99.90;;;;;;5055593;28;20199;-89
2023/02/26 03:43:31;;;;;;;8.03;2.10;;;0.10;99.90;;;;;;5065435;28;20207;-89
2023/02/26 03:46:02;;;;;;;5.90;1.97;;;0.20;99.90;;;;;;5063539;28;20776;-88
2023/02/26 03:48:33;;;;;;;7.50;2.33;;;0.10;99.90;;;;;;5057267;28;20226;-89
2023/02/26 03:51:05;;;;;;;4.53;1.70;;;0.10;99.90;;;;;;5067127;28;20210;-88
2023/02/26 03:53:35;;;;;;;6.97;1.60;;;0.10;99.90;;;;;;5060133;28;20207;-89
2023/02/26 03:56:07;;;;;;;6.93;1.80;;;0.10;99.90;;;;;;5057318;28;20226;-88
2023/02/26 03:58:34;;;;;;;6.03;1.60;;;0.20;99.90;;;;;;5054904;28;20206;-89
2023/02/26 04:01:06;;;;;;;6.03;1.47;;;0.10;99.90;;;;;;5065868;28;20581;-88
2023/02/26 04:03:40;;;;;;;3.87;1.60;;;0.10;99.90;;;;;;5058285;28;20209;-89
2023/02/26 04:06:08;;;;;;;4.17;1.60;;;0.20;99.90;;;;;;5068297;28;20217;-88
2023/02/26 04:08:35;;;;;;;4.73;1.93;;;0.20;99.90;;;;;;5059732;28;20209;-89
2023/02/26 04:11:07;;;;;;;4.33;1.60;;;0.20;99.90;;;;;;5056137;28;20234;-89
2023/02/26 04:13:34;;;;;;;5.80;1.50;;;0.10;99.90;;;;;;5055419;28;20286;-89
2023/02/26 04:16:01;;;;;;;3.53;1.47;;;0.20;99.90;;;;;;5064691;28;20233;-88
2023/02/26 04:18:28;;;;;;;4.37;1.43;;;0.20;99.90;;;;;;5068770;28;20278;-89
2023/02/26 04:20:56;;;;;;;3.70;1.60;;;0.20;99.90;;;;;;5056265;28;20205;-89
2023/02/26 04:23:23;;;;;;;7.97;2.07;;;0.20;99.90;;;;;;5069437;28;20204;-89
2023/02/26 04:25:50;;;;;;;4.60;1.80;;;0.20;99.90;;;;;;5059739;28;20710;-89
2023/02/26 04:28:17;;;;;;;5.80;1.83;;;0.20;99.90;;;;;;5058014;28;20278;-88
2023/02/26 04:30:44;;;;;;;6.23;1.93;;;0.20;99.90;;;;;;5073279;28;20223;-88
2023/02/26 04:33:12;;;;;;;4.60;1.53;;;0.20;99.90;;;;;;5058592;28;20199;-88
2023/02/26 04:35:39;;;;;;;3.47;1.60;;;0.20;99.90;;;;;;5058116;28;20584;-89
2023/02/26 04:38:07;;;;;;;5.47;2.13;;;0.10;99.90;;;;;;5072270;28;20627;-88
2023/02/26 04:40:34;;;;;;;4.37;1.90;;;0.20;99.90;;;;;;5065638;28;20278;-89
2023/02/26 04:43:01;;;;;;;7.77;1.63;;;0.30;99.90;;;;;;5054752;28;20652;-90
2023/02/26 04:45:28;;;;;;;3.17;1.80;;;0.30;99.90;;;;;;5055784;28;20250;-89
2023/02/26 04:47:55;;;;;;;5.70;1.50;;;0.30;99.90;;;;;;5073792;28;20195;-89
2023/02/26 04:50:22;;;;;;;5.87;1.73;;;0.30;99.90;;;;;;5053685;28;20221;-89
2023/02/26 04:52:49;;;;;;;6.03;1.57;;;0.30;99.90;;;;;;5052217;28;20191;-88
2023/02/26 04:55:17;;;;;;;4.43;1.50;;;0.30;99.90;;;;;;5054090;28;20624;-87
2023/02/26 04:57:44;;;;;;;4.13;1.83;;;0.30;99.90;;;;;;5053987;28;20585;-89
2023/02/26 05:00:12;;;;;;;3.83;1.40;;;0.30;99.90;;;;;;5053850;28;20195;-88
2023/02/26 05:02:39;;;;;;;2.97;1.77;;;0.30;99.90;;;;;;5053608;28;20729;-89
2023/02/26 05:05:06;;;;;;;2.73;1.30;;;0.30;99.90;;;;;;5053376;28;20223;-89
2023/02/26 05:07:33;;;;;;;5.30;2.20;;;0.30;99.90;;;;;;5053684;28;20211;-87
2023/02/26 05:10:00;;;;;;;4.07;1.80;;;0.30;99.90;;;;;;5053183;28;20223;-88
2023/02/26 05:12:28;;;;;;;5.17;1.60;;;0.30;99.90;;;;;;5053365;28;20199;-89
2023/02/26 05:14:55;;;;;;;5.03;1.70;;;0.30;99.90;;;;;;5053114;28;20223;-88
2023/02/26 05:17:22;;;;;;;9.20;2.13;;;0.30;99.90;;;;;;5053521;28;20202;-88
2023/02/26 05:19:49;;;;;;;4.57;1.17;;;0.30;99.90;;;;;;5058812;28;20209;-88
2023/02/26 05:22:16;;;;;;;5.93;1.60;;;0.30;99.90;;;;;;5067827;28;20664;-88
2023/02/26 05:24:43;;;;;;;6.13;1.60;;;0.30;99.90;;;;;;5068812;28;20238;-89
2023/02/26 05:27:10;;;;;;;3.20;1.40;;;0.30;99.90;;;;;;5064679;28;20214;-89
2023/02/26 05:29:40;;;;;;;2.43;1.00;;;0.30;99.90;;;;;;5075276;28;20202;-88
2023/02/26 05:32:08;;;;;;;3.93;1.40;;;0.30;99.90;;;;;;5066248;28;20287;-88
2023/02/26 05:34:34;;;;;;;6.47;1.43;;;0.30;99.90;;;;;;5074418;28;20218;-88
2023/02/26 05:37:01;;;;;;;6.23;1.17;;;0.30;99.90;;;;;;5061491;28;20289;-88
2023/02/26 05:39:28;;;;;;;3.17;1.33;;;0.30;99.90;;;;;;5068548;28;20284;-88
2023/02/26 05:41:56;;;;;;;4.63;1.43;;;0.30;99.90;;;;;;5077498;28;20646;-89
2023/02/26 05:44:23;;;;;;;2.80;1.40;;;0.30;99.90;;;;;;5066333;28;20309;-89
2023/02/26 05:46:51;;;;;;;2.40;1.27;;;0.50;99.90;;;;;;5064871;28;20224;-88
2023/02/26 05:49:18;;;;;;;4.47;1.47;;;0.40;99.90;;;;;;5077441;28;20206;-89
2023/02/26 05:51:45;;;;;;;3.53;1.67;;;0.40;99.90;;;;;;5074305;28;20226;-90
2023/02/26 05:54:12;;;;;;;4.00;1.80;;;0.40;99.90;;;;;;5067265;28;20206;-88
2023/02/26 05:56:39;;;;;;;15.77;2.13;;;0.40;99.90;;;;;;5069752;28;20199;-88
2023/02/26 05:59:06;;;;;;;7.07;2.17;;;0.30;99.90;;;;;;5076660;28;20216;-88
2023/02/26 06:01:33;;;;;;;2.17;1.33;;;0.30;99.90;;;;;;5062705;28;20286;-88
2023/02/26 06:04:01;;;;;;;3.10;1.33;;;0.20;99.90;;;;;;5068377;28;20212;-88
2023/02/26 06:06:28;;;;;;;4.70;1.50;;;0.20;99.90;;;;;;5075709;28;20213;-88
2023/02/26 06:08:54;;;;;;;7.33;1.50;;;0.10;99.90;;;;;;5068511;28;20686;-88
2023/02/26 06:11:21;;;;;;;6.73;1.43;;;0.10;99.90;;;;;;5066972;28;20229;-89
2023/02/26 06:13:48;;;;;;;5.87;1.50;;;0.10;99.90;;;;;;5069142;28;20197;-88
2023/02/26 06:16:15;;;;;;;5.10;2.17;;;0.10;99.90;;;;;;5061557;28;20706;-88
2023/02/26 06:18:42;;;;;;;5.80;1.50;;;0.00;99.90;;;;;;5057668;28;20202;-88
2023/02/26 06:21:10;;;;;;;3.97;1.43;;;0.10;99.90;;;;;;5061688;28;20201;-88
2023/02/26 06:23:37;;;;;;;3.93;1.23;;;0.00;99.90;;;;;;5065270;28;20210;-88
2023/02/26 06:26:04;;;;;;;4.70;1.63;;;0.00;99.90;;;;;;5060408;28;20567;-88
2023/02/26 06:28:31;;;;;;;2.30;1.27;;;0.00;99.90;;;;;;5066341;28;20678;-88
2023/02/26 06:30:57;;;;;;;3.70;1.20;;;0.00;99.90;;;;;;5060233;28;20217;-89
2023/02/26 06:33:25;;;;;;;5.27;1.30;;;-0.10;99.90;;;;;;5074278;28;20190;-89
2023/02/26 06:35:52;;;;;;;3.37;1.33;;;-0.10;99.90;;;;;;5060888;28;20218;-88
2023/02/26 06:38:20;;;;;;;3.37;1.70;;;-0.10;99.90;;;;;;5066906;28;20668;-87
2023/02/26 06:40:47;;;;;;;2.63;1.20;;;-0.10;99.90;;;;;;5066423;28;20225;-89
2023/02/26 06:43:14;;;;;;;5.17;2.10;;;-0.10;99.90;;;;;;5069366;28;20293;-88
2023/02/26 06:45:43;;;;;;;3.20;1.70;;;-0.20;99.90;;;;;;5064618;28;20294;-89
2023/02/26 06:48:10;;;;;;;3.97;1.90;;;-0.20;99.90;;;;;;5066429;28;20202;-89
2023/02/26 06:50:38;;;;;;;3.33;1.37;;;-0.20;99.90;;;;;;5065241;28;20222;-89
2023/02/26 06:53:05;;;;;;;2.03;0.93;;;-0.20;99.90;;;;;;5075706;28;20683;-88
2023/02/26 06:55:33;;;;;;;3.63;1.30;;;-0.30;99.90;;;;;;5073403;28;20225;-89
2023/02/26 06:58:00;;;;;;;4.00;1.40;;;-0.30;99.90;;;;;;5060684;28;20207;-89
2023/02/26 07:00:27;;;;;;;4.97;1.80;;;-0.30;99.90;;;;;;5078012;28;20281;-88
2023/02/26 07:02:54;;;;;;;3.73;1.33;;;-0.30;99.90;;;;;;5058127;28;20703;-89
2023/02/26 07:05:21;;;;;;;2.80;1.33;;;-0.30;99.90;;;;;;5063941;28;20223;-89
2023/02/26 07:07:48;;;;;;;3.00;1.30;;;-0.40;99.90;;;;;;5076910;28;20444;-88
2023/02/26 07:10:14;;;;;;;4.40;1.40;;;-0.40;99.90;;;;;;5063007;28;20223;-89
2023/02/26 07:12:43;;;;;;;4.43;1.40;;;-0.40;99.90;;;;;;5065808;28;20277;-88
2023/02/26 07:15:10;;;;;;;1.80;0.87;;;-0.40;99.90;;;;;;5064657;28;20226;-88
2023/02/26 07:17:37;;;;;;;3.50;1.20;;;-0.30;99.90;;;;;;5066913;28;20198;-88
2023/02/26 07:20:08;;;;;;;5.33;1.73;;;-0.20;99.90;;;;;;5066981;28;20221;-88
2023/02/26 07:22:36;;;;;;;4.07;1.27;;;-0.30;99.90;;;;;;5065516;28;20241;-89
2023/02/26 07:25:03;;;;;;;2.83;1.17;;;-0.20;99.90;;;;;;5071389;28;20214;-88
2023/02/26 07:27:32;;;;;;;5.27;1.80;;;0.00;99.90;;;;;;5061096;28;20206;-88
2023/02/26 07:30:00;;;;;;;4.53;2.20;;;0.00;99.90;;;;;;5066055;28;20206;-87
2023/02/26 07:32:27;;;;;;;5.47;1.63;;;0.20;99.90;;;;;;5074682;28;20233;-85
2023/02/26 07:34:54;;;;;;;4.53;1.90;;;0.30;99.90;;;;;;5072446;28;20238;-88
2023/02/26 07:37:21;;;;;;;3.47;1.60;;;0.40;99.90;;;;;;5072327;28;20202;-88
2023/02/26 07:39:48;;;;;;;3.70;1.50;;;0.80;99.90;;;;;;5076325;28;20208;-88
2023/02/26 07:42:15;;;;;;;5.20;1.43;;;1.00;99.90;;;;;;5072860;28;20197;-88
2023/02/26 07:44:42;;;;;;;7.60;1.90;;;1.50;99.90;;;;;;5061146;28;20214;-89
2023/02/26 07:47:10;;;;;;;3.40;1.23;;;2.10;99.90;;;;;;5074458;28;20662;-89
2023/02/26 07:49:37;;;;;;;3.37;1.30;;;3.00;99.90;;;;;;5074679;28;20247;-89
2023/02/26 07:52:06;;;;;;;4.63;1.40;;;2.10;99.90;;;;;;5065294;28;20684;-87
2023/02/26 07:54:33;;;;;;;4.77;1.70;;;1.40;99.90;;;;;;5066953;28;20241;-88
2023/02/26 07:56:59;;;;;;;3.90;1.30;;;1.50;99.90;;;;;;5078707;28;20213;-87
2023/02/26 07:59:26;;;;;;;2.63;1.33;;;1.60;99.90;;;;;;5071458;28;20195;-88
2023/02/26 08:01:53;;;;;;;3.47;1.30;;;2.10;99.90;;;;;;5076391;28;20201;-90
2023/02/26 08:04:21;;;;;;;4.30;1.40;;;1.70;99.90;;;;;;5064823;28;20205;-88
2023/02/26 08:06:48;;;;;;;2.87;0.97;;;1.40;99.90;;;;;;5067186;28;20659;-88
2023/02/26 08:09:15;;;;;;;3.23;0.90;;;1.50;99.90;;;;;;5059575;28;20674;-89
2023/02/26 08:11:42;;;;;;;3.10;1.07;;;1.50;99.90;;;;;;5072665;28;20239;-88
2023/02/26 08:14:11;;;;;;;1.83;0.90;;;1.30;99.90;;;;;;5067283;28;20261;-88
2023/02/26 08:16:37;;;;;;;6.77;1.00;;;1.80;99.90;;;;;;5063070;28;20207;-87
2023/02/26 08:19:04;;;;;;;3.47;1.80;;;1.10;99.90;;;;;;5067256;28;20460;-88
2023/02/26 08:21:32;;;;;;;3.80;1.70;;;0.80;99.90;;;;;;5070795;28;20678;-88
2023/02/26 08:23:59;;;;;;;1.77;1.20;;;1.50;99.90;;;;;;5069382;28;20483;-89
2023/02/26 08:26:27;;;;;;;5.83;1.37;;;2.10;99.90;;;;;;5069398;28;20324;-88
2023/02/26 08:28:55;;;;;;;4.77;0.90;;;2.50;99.90;;;;;;5076925;28;20364;-89
2023/02/26 08:31:22;;;;;;;5.33;2.00;;;2.30;1.00;;;;;;5061793;28;20305;-88
2023/02/26 08:33:49;;;;;;;2.40;1.13;;;2.30;99.90;;;;;;5071571;28;20679;-89
2023/02/26 08:36:15;;;;;;;2.70;1.10;;;3.00;1.00;;;;;;5079585;28;20279;-89
2023/02/26 08:38:43;;;;;;;2.53;1.00;;;3.50;1.00;;;;;;5067252;28;20220;-88
2023/02/26 08:41:10;;;;;;;2.90;1.00;;;3.60;1.00;;;;;;5070334;28;20203;-88
2023/02/26 08:43:37;;;;;;;2.40;1.17;;;3.40;1.00;;;;;;5081000;28;20559;-89
2023/02/26 08:46:04;;;;;;;2.90;0.90;;;3.10;1.00;;;;;;5068658;28;20238;-88
2023/02/26 08:48:31;;;;;;;1.40;0.80;;;2.90;1.00;;;;;;5065298;28;20691;-89
2023/02/26 08:50:58;;;;;;;1.93;0.80;;;2.20;1.00;;;;;;5068571;28;20206;-87
2023/02/26 08:53:25;;;;;;;3.10;0.93;;;2.40;1.00;;;;;;5077417;28;20210;-87
2023/02/26 08:55:53;;;;;;;2.93;0.90;;;2.10;1.00;;;;;;5068198;28;20229;-88
2023/02/26 08:58:20;;;;;;;2.40;0.93;;;2.60;1.00;;;;;;5065641;28;20632;-89
2023/02/26 09:00:47;;;;;;;1.63;0.50;;;2.60;1.00;;;;;;5075455;28;20209;-88
2023/02/26 09:03:14;;;;;;;3.30;0.70;;;2.40;1.00;;;;;;5064356;28;20700;-88
2023/02/26 09:05:41;;;;;;;3.23;0.80;;;2.70;1.00;;;;;;5068685;28;20223;-88
2023/02/26 09:08:10;;;;;;;1.47;0.90;;;2.50;1.00;;;;;;5064126;28;20203;-88
2023/02/26 09:10:37;;;;;;;4.33;1.20;;;2.20;1.00;;;;;;5071206;28;20687;-89
2023/02/26 09:13:05;;;;;;;3.70;0.80;;;2.00;1.00;;;;;;5062725;28;20288;-88
2023/02/26 09:15:32;;;;;;;1.93;0.90;;;2.40;1.00;;;;;;5068402;28;20260;-89
2023/02/26 09:17:59;;;;;;;4.07;1.23;;;2.40;1.00;;;;;;5070847;28;20666;-89
2023/02/26 09:20:26;;;;;;;2.73;0.93;;;2.80;1.00;;;;;;5076814;28;20211;-89
2023/02/26 09:22:53;;;;;;;2.07;1.07;;;2.80;1.00;;;;;;5065119;28;20197;-88
2023/02/26 09:25:20;;;;;;;3.33;1.40;;;2.80;1.00;;;;;;5066523;28;20214;-88
2023/02/26 09:27:47;;;;;;;3.73;1.20;;;3.00;99.90;;;;;;5076825;28;20201;-89
2023/02/26 09:30:16;;;;;;;3.33;1.20;;;2.90;99.90;;;;;;5061288;28;20209;-88
2023/02/26 09:32:43;;;;;;;1.93;1.13;;;2.80;99.90;;;;;;5070439;28;20221;-89
2023/02/26 09:35:11;;;;;;;2.10;0.77;;;3.10;99.90;;;;;;5081181;28;20256;-87
2023/02/26 09:37:38;;;;;;;3.90;1.43;;;3.20;99.90;;;;;;5071453;28;20624;-89
2023/02/26 09:40:07;;;;;;;3.57;0.93;;;3.20;1.00;;;;;;5070159;28;20210;-89
2023/02/26 09:42:49;;;;;;;3.57;0.83;;;3.00;1.00;;;;;;5071606;28;20201;-89
2023/02/26 09:45:26;;;;;;;3.17;0.77;;;3.50;99.90;;;;;;5074114;28;20236;-89
2023/02/26 09:47:53;;;;;;;1.30;0.93;;;3.30;1.00;;;;;;5062190;28;20733;-88
2023/02/26 09:50:26;;;;;;;4.27;1.20;;;3.00;1.00;;;;;;5071748;28;20201;-89
2023/02/26 09:52:56;;;;;;;3.37;1.23;;;3.00;1.00;;;;;;5072683;28;20259;-90
2023/02/26 09:55:29;;;;;;;2.77;1.07;;;3.20;59.90;;;;;;5064489;28;20588;-89
2023/02/26 09:57:59;;;;;;;3.17;0.97;;;3.20;1.00;;;;;;5070206;28;20193;-89
2023/02/26 10:00:34;;;;;;;1.70;0.93;;;3.20;1.00;;;;;;5076457;28;20214;-89
2023/02/26 10:03:13;;;;;;;1.83;0.90;;;3.10;1.00;;;;;;5062233;28;20211;-88
2023/02/26 10:05:44;;;;;;;3.17;1.30;;;3.30;1.00;;;;;;5073356;28;20227;-89
2023/02/26 10:08:15;;;;;;;4.93;1.00;;;3.10;1.00;;;;;;5073602;28;20205;-88
2023/02/26 10:10:50;;;;;;;5.03;0.87;;;3.30;1.00;;;;;;5067696;28;21206;-90
2023/02/26 10:13:23;;;;;;;4.57;1.13;;;3.40;99.90;;;;;;5064319;28;20225;-88
2023/02/26 10:15:53;;;;;;;1.03;0.80;;;3.40;1.00;;;;;;5073368;28;20218;-88
2023/02/26 10:18:24;;;;;;;1.90;0.60;;;3.40;99.90;;;;;;5072239;28;20202;-89
2023/02/26 10:20:56;;;;;;;2.03;1.13;;;3.40;93.20;;;;;;5068183;28;20212;-89
2023/02/26 10:23:26;;;;;;;3.83;1.27;;;3.40;42.40;;;;;;5070155;28;20313;-88
2023/02/26 10:26:01;;;;;;;1.63;0.80;;;3.80;99.90;;;;;;5073816;28;20213;-89
2023/02/26 10:28:45;;;;;;;3.00;1.70;;;3.90;1.00;;;;;;5065102;28;20292;-88
2023/02/26 10:31:22;;;;;;;3.97;0.70;;;3.70;1.00;;;;;;5081230;28;20464;-89
2023/02/26 10:33:58;;;;;;;1.80;0.90;;;3.60;1.00;;;;;;5065825;28;20201;-88
2023/02/26 10:36:29;;;;;;;1.30;1.00;;;3.70;1.00;;;;;;5061040;28;20308;-89
2023/02/26 10:39:02;;;;;;;3.77;1.30;;;4.10;1.00;;;;;;5074716;28;20287;-88
2023/02/26 10:41:32;;;;;;;4.20;0.97;;;4.50;1.00;;;;;;5071105;28;20661;-89
2023/02/26 10:44:06;;;;;;;1.50;1.00;;;3.50;1.00;;;;;;5067827;28;20209;-88
2023/02/26 10:46:44;;;;;;;3.73;1.33;;;4.00;1.00;;;;;;5080274;28;20386;-88
2023/02/26 10:49:31;;;;;;;4.13;0.97;;;4.40;1.00;;;;;;5063417;28;20202;-89
2023/02/26 10:52:05;;;;;;;1.60;0.60;;;4.70;1.00;;;;;;5067295;28;20218;-89
2023/02/26 10:54:36;;;;;;;3.13;0.87;;;4.40;1.00;;;;;;5084013;28;20661;-89
2023/02/26 10:57:03;;;;;;;4.63;1.50;;;3.90;1.00;;;;;;5068909;28;20205;-88
2023/02/26 10:59:31;;;;;;;2.43;0.90;;;4.30;1.00;;;;;;5075618;28;20279;-89
2023/02/26 11:02:00;;;;;;;0.90;0.60;;;4.10;1.00;;;;;;5071583;28;20217;-88
2023/02/26 11:04:27;;;;;;;4.20;1.10;;;4.30;1.00;;;;;;5074001;28;20226;-88
2023/02/26 11:06:57;;;;;;;1.30;0.73;;;4.40;1.00;;;;;;5072860;28;20285;-89
2023/02/26 11:09:26;;;;;;;1.50;1.00;;;4.40;1.00;;;;;;5067418;28;20278;-88
2023/02/26 11:11:54;;;;;;;2.93;0.93;;;4.90;1.00;;;;;;5069138;28;20225;-89
2023/02/26 11:14:22;;;;;;;1.83;0.57;;;4.80;1.00;;;;;;5073826;28;20589;-89
2023/02/26 11:16:52;;;;;;;3.77;0.73;;;4.10;99.90;;;;;;5071724;28;20228;-88
2023/02/26 11:19:28;;;;;;;1.37;0.70;;;4.10;1.00;;;;;;5069009;28;20487;-88
2023/02/26 11:21:56;;;;;;;2.27;1.10;;;5.00;1.00;;;;;;5074615;28;20658;-88
2023/02/26 11:24:30;;;;;;;2.53;0.53;;;4.90;99.90;;;;;;5074137;28;20218;-89
2023/02/26 11:27:02;;;;;;;1.10;0.80;;;4.50;99.90;;;;;;5062690;28;20217;-89
2023/02/26 11:29:37;;;;;;;1.23;0.70;;;3.60;99.90;;;;;;5069353;28;20694;-89
2023/02/26 11:32:04;;;;;;;1.50;0.80;;;4.10;99.90;;;;;;5075576;28;20253;-89
2023/02/26 11:34:33;;;;;;;0.40;0.40;;;4.60;99.90;;;;;;5071157;28;20237;-88
2023/02/26 11:37:01;;;;;;;0.70;0.60;;;4.50;99.90;;;;;;5072182;28;20205;-88
2023/02/26 11:39:32;;;;;;;2.50;0.40;;;4.40;99.90;;;;;;5065174;28;20211;-88
2023/02/26 11:42:02;;;;;;;1.07;0.43;;;4.00;99.90;;;;;;5069247;28;20234;-89
2023/02/26 11:44:36;;;;;;;2.23;0.83;;;4.20;99.90;;;;;;5071338;28;20276;-88
2023/02/26 11:47:06;;;;;;;4.13;0.90;;;4.40;99.90;;;;;;5070707;28;20222;-88
2023/02/26 11:49:35;;;;;;;2.03;0.70;;;4.90;99.90;;;;;;5071779;28;20206;-88
2023/02/26 11:52:20;;;;;;;4.27;0.90;;;4.30;99.90;;;;;;5062684;28;20707;-89
2023/02/26 11:54:52;;;;;;;2.23;0.63;;;4.50;99.90;;;;;;5062095;28;20601;-88
2023/02/26 11:57:24;;;;;;;2.97;0.53;;;4.80;99.90;;;;;;5074137;28;20210;-89
2023/02/26 11:59:53;;;;;;;1.37;0.47;;;4.40;99.90;;;;;;5072179;28;20201;-88
2023/02/26 12:02:22;;;;;;;0.60;0.40;;;4.80;99.90;;;;;;5070527;28;20204;-88
2023/02/26 12:04:53;;;;;;;0.77;0.30;;;4.70;99.90;;;;;;5069692;28;20221;-90
2023/02/26 12:07:21;;;;;;;0.87;0.57;;;4.90;99.90;;;;;;5066081;28;20225;-89
2023/02/26 12:09:49;;;;;;;4.37;0.67;;;5.20;99.90;;;;;;5070797;28;20217;-89
2023/02/26 12:12:34;;;;;;;0.30;0.30;;;5.00;99.90;;;;;;5054536;28;20226;-90
2023/02/26 12:15:26;;;;;;;1.30;0.50;;;4.70;88.80;;;;;;5062894;28;20236;-88
2023/02/26 12:18:09;;;;;;;0.50;0.30;;;4.20;1.00;;;;;;5060769;28;20216;-88
2023/02/26 12:20:47;;;;;;;1.20;0.50;;;4.50;12.20;;;;;;5059076;28;20221;-89
2023/02/26 12:23:35;;;;;;;2.10;0.70;;;4.80;56.00;;;;;;5069572;28;20199;-89
2023/02/26 12:26:16;;;;;;;2.43;1.20;;;5.50;99.90;;;;;;5066714;28;20225;-89
2023/02/26 12:29:07;;;;;;;0.83;0.70;;;5.80;99.90;;;;;;5067951;28;20213;-89
2023/02/26 12:32:00;;;;;;;1.23;0.67;;;5.30;27.80;;;;;;5082250;28;20204;-88
2023/02/26 12:34:54;;;;;;;0.87;0.53;;;4.90;1.00;;;;;;5086825;28;20229;-89
2023/02/26 12:37:34;;;;;;;2.10;1.07;;;4.60;1.00;;;;;;5077084;28;20209;-89
2023/02/26 12:40:15;;;;;;;3.03;0.40;;;4.80;1.00;;;;;;5074495;28;20304;-89
2023/02/26 12:42:51;;;;;;;0.77;0.30;;;4.90;1.00;;;;;;5077522;28;20212;-88
2023/02/26 12:45:36;;;;;;;1.20;0.60;;;4.60;1.00;;;;;;5073011;28;20234;-88
2023/02/26 12:48:36;;;;;;;1.97;0.60;;;4.80;1.00;;;;;;5069328;28;20203;-90
2023/02/26 12:51:12;;;;;;;0.97;0.60;;;5.40;1.00;;;;;;5070888;28;20249;-89
2023/02/26 12:54:11;;;;;;;1.03;0.60;;;5.10;1.00;;;;;;5068934;28;20793;-90
2023/02/26 12:56:57;;;;;;;1.17;0.67;;;7.20;99.90;;;;;;5067820;28;20206;-91
2023/02/26 12:59:43;;;;;;;2.20;0.40;;;7.50;99.90;;;;;;5065820;28;20581;-91
2023/02/26 13:02:45;;;;;;;2.77;0.77;;;8.20;99.90;;;;;;5070514;28;20590;-91
2023/02/26 13:05:22;;;;;;;1.17;0.50;;;7.50;99.90;;;;;;5072889;28;20225;-91
2023/02/26 13:08:12;;;;;;;0.77;0.47;;;7.80;99.90;;;;;;5061982;28;20206;-90
2023/02/26 13:10:53;;;;;;;0.47;0.40;;;7.90;99.90;;;;;;5075296;28;20265;-90
2023/02/26 13:13:48;;;;;;;1.30;0.40;;;6.30;1.00;;;;;;5068212;28;20599;-90
2023/02/26 13:16:27;;;;;;;0.67;0.67;;;5.40;1.00;;;;;;5063603;28;20685;-89